createdAt,value
2018-12-31T00:00:41.168Z,5.74
2018-12-31T00:01:41.140Z,5.70
2018-12-31T00:02:41.112Z,5.73
2018-12-31T00:03:41.084Z,5.75
2018-12-31T00:04:41.056Z,5.75
2018-12-31T00:05:41.033Z,5.70
2018-12-31T00:06:41.000Z,5.70
2018-12-31T00:07:40.974Z,5.74
2018-12-31T00:08:40.948Z,5.81
2018-12-31T00:09:40.917Z,5.74
2018-12-31T00:10:40.889Z,5.70
2018-12-31T00:11:40.860Z,5.73
2018-12-31T00:12:40.831Z,5.71
2018-12-31T00:13:40.804Z,5.67
2018-12-31T00:14:40.776Z,5.55
2018-12-31T00:15:40.748Z,5.60
2018-12-31T00:16:40.719Z,5.60
2018-12-31T00:17:40.692Z,5.66
2018-12-31T00:18:40.664Z,5.56
2018-12-31T00:19:40.635Z,5.55
2018-12-31T00:20:40.609Z,5.63
2018-12-31T00:21:42.831Z,5.57
2018-12-31T00:22:40.552Z,5.57
2018-12-31T00:23:40.526Z,5.60
2018-12-31T00:24:40.495Z,5.59
2018-12-31T00:25:40.467Z,5.59
2018-12-31T00:26:40.439Z,5.68
2018-12-31T00:27:40.412Z,5.59
2018-12-31T00:28:40.382Z,5.67
2018-12-31T00:29:40.354Z,5.64
2018-12-31T00:30:40.327Z,5.66
2018-12-31T00:31:40.299Z,5.70
2018-12-31T00:32:40.270Z,5.71
2018-12-31T00:33:40.243Z,5.66
2018-12-31T00:34:40.216Z,5.63
2018-12-31T00:35:40.191Z,5.56
2018-12-31T00:36:40.158Z,5.59
2018-12-31T00:37:40.130Z,5.56
2018-12-31T00:38:40.103Z,5.66
2018-12-31T00:39:40.078Z,5.64
2018-12-31T00:40:40.051Z,5.71
2018-12-31T00:41:40.019Z,5.68
2018-12-31T00:42:39.990Z,5.70
2018-12-31T00:43:39.963Z,5.70
2018-12-31T00:44:39.936Z,5.83
2018-12-31T00:45:39.906Z,5.82
2018-12-31T00:46:39.878Z,5.71
2018-12-31T00:47:39.852Z,5.70
2018-12-31T00:48:39.820Z,5.73
2018-12-31T00:49:39.794Z,5.77
2018-12-31T00:50:39.769Z,5.73
2018-12-31T00:51:39.742Z,5.77
2018-12-31T00:52:39.710Z,5.81
2018-12-31T00:53:39.682Z,5.77
2018-12-31T00:54:39.654Z,5.73
2018-12-31T00:55:39.627Z,5.78
2018-12-31T00:56:39.602Z,5.74
2018-12-31T00:57:39.570Z,5.64
2018-12-31T00:58:39.544Z,5.68
2018-12-31T00:59:39.515Z,5.70
2018-12-31T01:00:39.486Z,5.68
2018-12-31T01:01:39.459Z,5.75
2018-12-31T01:02:39.431Z,5.81
2018-12-31T01:03:39.404Z,5.70
2018-12-31T01:04:39.374Z,5.71
2018-12-31T01:05:39.347Z,5.78
2018-12-31T01:06:39.319Z,5.77
2018-12-31T01:07:39.291Z,5.83
2018-12-31T01:08:39.264Z,5.81
2018-12-31T01:09:39.235Z,5.85
2018-12-31T01:10:39.207Z,5.78
2018-12-31T01:11:39.184Z,5.81
2018-12-31T01:12:39.151Z,5.88
2018-12-31T01:13:39.125Z,5.82
2018-12-31T01:14:40.597Z,5.75
2018-12-31T01:15:39.069Z,5.81
2018-12-31T01:16:39.039Z,5.83
2018-12-31T01:17:39.018Z,5.81
2018-12-31T01:18:38.984Z,5.85
2018-12-31T01:19:38.956Z,5.75
2018-12-31T01:20:38.928Z,5.82
2018-12-31T01:21:38.902Z,5.73
2018-12-31T01:22:38.874Z,5.71
2018-12-31T01:23:38.843Z,5.78
2018-12-31T01:24:38.819Z,5.75
2018-12-31T01:25:38.789Z,5.75
2018-12-31T01:26:38.761Z,5.77
2018-12-31T01:27:38.736Z,5.71
2018-12-31T01:28:38.705Z,5.70
2018-12-31T01:29:38.679Z,5.74
2018-12-31T01:30:38.650Z,5.71
2018-12-31T01:31:38.622Z,5.75
2018-12-31T01:32:38.594Z,5.68
2018-12-31T01:33:38.568Z,5.75
2018-12-31T01:34:38.537Z,5.71
2018-12-31T01:35:38.509Z,5.71
2018-12-31T01:36:38.480Z,5.91
2018-12-31T01:37:38.453Z,5.85
2018-12-31T01:38:38.424Z,5.73
2018-12-31T01:39:38.397Z,5.70
2018-12-31T01:40:38.368Z,5.74
2018-12-31T01:41:38.345Z,5.74
2018-12-31T01:42:38.313Z,5.71
2018-12-31T01:43:38.284Z,5.83
2018-12-31T01:44:38.255Z,5.75
2018-12-31T01:45:38.228Z,5.74
2018-12-31T01:46:38.200Z,5.73
2018-12-31T01:47:38.172Z,5.83
2018-12-31T01:48:38.148Z,5.78
2018-12-31T01:49:38.115Z,5.82
2018-12-31T01:50:38.087Z,5.83
2018-12-31T01:51:38.059Z,5.81
2018-12-31T01:52:38.031Z,5.88
2018-12-31T01:53:38.003Z,5.86
2018-12-31T01:54:37.975Z,5.91
2018-12-31T01:55:37.947Z,5.89
2018-12-31T01:56:37.918Z,5.89
2018-12-31T01:57:37.891Z,5.88
2018-12-31T01:58:37.862Z,5.91
2018-12-31T01:59:37.833Z,5.91
2018-12-31T02:00:37.808Z,5.96
2018-12-31T02:01:37.778Z,5.89
2018-12-31T02:02:37.750Z,5.91
2018-12-31T02:03:37.722Z,5.91
2018-12-31T02:04:37.693Z,5.93
2018-12-31T02:05:37.666Z,5.95
2018-12-31T02:06:37.638Z,5.89
2018-12-31T02:07:37.610Z,5.95
2018-12-31T02:08:37.585Z,5.89
2018-12-31T02:09:37.565Z,5.92
2018-12-31T02:10:37.526Z,5.88
2018-12-31T02:11:37.502Z,5.88
2018-12-31T02:12:37.472Z,5.85
2018-12-31T02:13:37.442Z,5.86
2018-12-31T02:14:37.416Z,5.73
2018-12-31T02:15:37.387Z,5.74
2018-12-31T02:16:37.358Z,5.71
2018-12-31T02:17:37.330Z,5.73
2018-12-31T02:18:37.303Z,5.78
2018-12-31T02:19:37.275Z,5.71
2018-12-31T02:20:37.246Z,5.73
2018-12-31T02:21:37.218Z,5.77
2018-12-31T02:22:37.191Z,5.74
2018-12-31T02:23:37.163Z,5.83
2018-12-31T02:24:37.134Z,5.81
2018-12-31T02:25:37.110Z,5.75
2018-12-31T02:26:37.079Z,5.78
2018-12-31T02:27:37.801Z,5.75
2018-12-31T02:28:37.023Z,5.77
2018-12-31T02:29:36.995Z,5.85
2018-12-31T02:30:36.967Z,5.83
2018-12-31T02:31:36.939Z,5.77
2018-12-31T02:32:36.913Z,5.78
2018-12-31T02:33:36.884Z,5.77
2018-12-31T02:34:36.855Z,5.85
2018-12-31T02:35:36.827Z,5.82
2018-12-31T02:36:36.801Z,5.89
2018-12-31T02:37:36.771Z,5.78
2018-12-31T02:38:36.744Z,5.81
2018-12-31T02:39:36.716Z,5.81
2018-12-31T02:40:36.688Z,5.81
2018-12-31T02:41:36.659Z,5.75
2018-12-31T02:42:36.634Z,5.85
2018-12-31T02:43:38.855Z,5.77
2018-12-31T02:44:36.575Z,5.77
2018-12-31T02:45:36.547Z,5.85
2018-12-31T02:46:36.519Z,5.86
2018-12-31T02:47:36.493Z,5.81
2018-12-31T02:48:36.463Z,5.82
2018-12-31T02:49:36.436Z,5.78
2018-12-31T02:50:36.408Z,5.70
2018-12-31T02:51:36.381Z,5.75
2018-12-31T02:52:36.351Z,5.86
2018-12-31T02:53:36.325Z,5.77
2018-12-31T02:54:36.297Z,5.83
2018-12-31T02:55:36.269Z,5.77
2018-12-31T02:56:36.241Z,5.74
2018-12-31T02:57:36.212Z,5.75
2018-12-31T02:58:36.182Z,5.78
2018-12-31T02:59:36.157Z,5.86
2018-12-31T03:00:36.126Z,5.77
2018-12-31T03:01:36.100Z,5.55
2018-12-31T03:02:36.072Z,5.59
2018-12-31T03:03:36.043Z,5.70
2018-12-31T03:04:36.015Z,5.70
2018-12-31T03:05:35.988Z,5.73
2018-12-31T03:06:35.960Z,5.75
2018-12-31T03:07:35.932Z,5.78
2018-12-31T03:08:35.903Z,5.85
2018-12-31T03:09:35.875Z,5.82
2018-12-31T03:10:35.854Z,5.71
2018-12-31T03:11:35.820Z,5.85
2018-12-31T03:12:35.792Z,5.81
2018-12-31T03:13:35.763Z,5.86
2018-12-31T03:14:35.736Z,5.86
2018-12-31T03:15:35.709Z,5.88
2018-12-31T03:16:35.680Z,5.93
2018-12-31T03:17:35.652Z,5.88
2018-12-31T03:18:35.623Z,5.85
2018-12-31T03:19:35.599Z,5.93
2018-12-31T03:20:35.568Z,5.82
2018-12-31T03:21:35.539Z,5.86
2018-12-31T03:22:35.512Z,5.86
2018-12-31T03:23:35.484Z,5.86
2018-12-31T03:24:35.457Z,5.85
2018-12-31T03:25:35.432Z,5.86
2018-12-31T03:26:35.400Z,5.81
2018-12-31T03:27:35.372Z,5.74
2018-12-31T03:28:35.344Z,5.83
2018-12-31T03:29:35.316Z,5.83
2018-12-31T03:30:35.289Z,5.78
2018-12-31T03:31:35.267Z,5.71
2018-12-31T03:32:35.234Z,5.83
2018-12-31T03:33:35.205Z,5.96
2018-12-31T03:34:35.177Z,5.85
2018-12-31T03:35:35.150Z,5.81
2018-12-31T03:36:35.120Z,5.85
2018-12-31T03:37:35.848Z,5.83
2018-12-31T03:38:35.066Z,5.81
2018-12-31T03:39:35.040Z,5.78
2018-12-31T03:40:35.012Z,5.73
2018-12-31T03:41:34.981Z,5.85
2018-12-31T03:42:34.952Z,5.73
2018-12-31T03:43:34.928Z,5.74
2018-12-31T03:44:34.896Z,5.78
2018-12-31T03:45:34.868Z,5.82
2018-12-31T03:46:34.840Z,5.91
2018-12-31T03:47:34.814Z,5.75
2018-12-31T03:48:34.783Z,5.81
2018-12-31T03:49:34.755Z,5.66
2018-12-31T03:50:34.731Z,5.83
2018-12-31T03:51:34.700Z,5.85
2018-12-31T03:52:34.671Z,5.83
2018-12-31T03:53:34.643Z,5.77
2018-12-31T03:54:34.621Z,5.75
2018-12-31T03:55:34.589Z,5.74
2018-12-31T03:56:34.558Z,5.82
2018-12-31T03:57:34.530Z,5.82
2018-12-31T03:58:34.504Z,5.78
2018-12-31T03:59:34.476Z,5.71
2018-12-31T04:00:34.455Z,5.68
2018-12-31T04:01:34.418Z,5.85
2018-12-31T04:02:34.390Z,5.77
2018-12-31T04:03:34.368Z,5.73
2018-12-31T04:04:35.085Z,5.78
2018-12-31T04:05:34.305Z,5.74
2018-12-31T04:06:34.277Z,5.74
2018-12-31T04:07:34.251Z,5.68
2018-12-31T04:08:34.220Z,5.70
2018-12-31T04:09:35.078Z,5.67
2018-12-31T04:10:34.164Z,5.68
2018-12-31T04:11:34.137Z,5.77
2018-12-31T04:12:34.107Z,5.71
2018-12-31T04:13:34.079Z,5.83
2018-12-31T04:14:34.051Z,5.81
2018-12-31T04:15:34.024Z,5.77
2018-12-31T04:16:33.995Z,5.78
2018-12-31T04:17:33.967Z,5.91
2018-12-31T04:18:33.939Z,5.77
2018-12-31T04:19:33.914Z,5.88
2018-12-31T04:20:33.883Z,5.89
2018-12-31T04:21:33.854Z,5.60
2018-12-31T04:22:33.826Z,5.77
2018-12-31T04:23:33.799Z,5.81
2018-12-31T04:24:33.770Z,5.66
2018-12-31T04:25:33.743Z,5.66
2018-12-31T04:26:33.714Z,5.67
2018-12-31T04:27:33.687Z,5.67
2018-12-31T04:28:33.659Z,5.71
2018-12-31T04:29:33.630Z,5.67
2018-12-31T04:30:33.602Z,5.57
2018-12-31T04:31:33.574Z,5.56
2018-12-31T04:32:33.546Z,5.55
2018-12-31T04:33:33.517Z,5.67
2018-12-31T04:34:33.489Z,5.70
2018-12-31T04:35:33.472Z,5.68
2018-12-31T04:36:33.434Z,5.66
2018-12-31T04:37:33.414Z,5.67
2018-12-31T04:38:33.378Z,5.60
2018-12-31T04:39:33.350Z,5.67
2018-12-31T04:40:33.331Z,5.63
2018-12-31T04:41:33.296Z,5.64
2018-12-31T04:42:33.266Z,5.74
2018-12-31T04:43:33.236Z,5.66
2018-12-31T04:44:33.210Z,5.70
2018-12-31T04:45:33.181Z,5.59
2018-12-31T04:46:33.161Z,5.64
2018-12-31T04:47:33.127Z,5.57
2018-12-31T04:48:33.168Z,5.68
2018-12-31T04:49:33.069Z,5.63
2018-12-31T04:50:33.042Z,5.63
2018-12-31T04:51:33.013Z,5.63
2018-12-31T04:52:32.984Z,5.70
2018-12-31T04:53:32.956Z,5.73
2018-12-31T04:54:32.932Z,5.78
2018-12-31T04:55:32.900Z,5.78
2018-12-31T04:56:32.873Z,5.74
2018-12-31T04:57:32.847Z,5.74
2018-12-31T04:58:32.816Z,5.71
2018-12-31T04:59:32.788Z,5.82
2018-12-31T05:00:32.758Z,5.74
2018-12-31T05:01:32.731Z,5.83
2018-12-31T05:02:32.703Z,5.73
2018-12-31T05:03:32.675Z,5.77
2018-12-31T05:04:32.646Z,5.70
2018-12-31T05:05:32.620Z,5.75
2018-12-31T05:06:32.591Z,5.81
2018-12-31T05:07:32.566Z,5.74
2018-12-31T05:08:32.534Z,5.82
2018-12-31T05:09:32.508Z,5.75
2018-12-31T05:10:32.480Z,5.73
2018-12-31T05:11:32.452Z,5.83
2018-12-31T05:12:32.425Z,5.86
2018-12-31T05:13:32.395Z,5.85
2018-12-31T05:14:32.368Z,5.82
2018-12-31T05:15:32.342Z,5.89
2018-12-31T05:16:32.314Z,5.77
2018-12-31T05:17:32.283Z,5.89
2018-12-31T05:18:32.255Z,5.88
2018-12-31T05:19:32.227Z,5.85
2018-12-31T05:20:32.199Z,5.86
2018-12-31T05:21:32.170Z,5.82
2018-12-31T05:22:32.143Z,5.89
2018-12-31T05:23:32.118Z,5.89
2018-12-31T05:24:32.089Z,5.86
2018-12-31T05:25:32.059Z,5.83
2018-12-31T05:26:32.031Z,5.85
2018-12-31T05:27:32.005Z,5.85
2018-12-31T05:28:31.975Z,5.86
2018-12-31T05:29:31.948Z,5.91
2018-12-31T05:30:31.921Z,5.85
2018-12-31T05:31:31.892Z,5.83
2018-12-31T05:32:31.867Z,5.83
2018-12-31T05:33:31.836Z,5.82
2018-12-31T05:34:31.808Z,5.88
2018-12-31T05:35:31.781Z,5.89
2018-12-31T05:36:31.754Z,5.89
2018-12-31T05:37:31.724Z,5.86
2018-12-31T05:38:31.696Z,5.86
2018-12-31T05:39:31.669Z,5.89
2018-12-31T05:40:31.640Z,5.81
2018-12-31T05:41:31.612Z,5.78
2018-12-31T05:42:31.584Z,5.78
2018-12-31T05:43:31.556Z,5.75
2018-12-31T05:44:31.527Z,5.89
2018-12-31T05:45:31.500Z,5.83
2018-12-31T05:46:31.472Z,5.81
2018-12-31T05:47:31.445Z,5.91
2018-12-31T05:48:31.416Z,5.88
2018-12-31T05:49:31.387Z,5.71
2018-12-31T05:50:31.361Z,5.75
2018-12-31T05:51:31.332Z,5.81
2018-12-31T05:52:31.304Z,5.81
2018-12-31T05:53:31.275Z,5.88
2018-12-31T05:54:31.248Z,5.75
2018-12-31T05:55:31.223Z,5.85
2018-12-31T05:56:31.192Z,5.78
2018-12-31T05:57:31.165Z,5.81
2018-12-31T05:58:31.135Z,5.85
2018-12-31T05:59:31.108Z,5.91
2018-12-31T06:00:31.080Z,5.82
2018-12-31T06:01:31.051Z,5.89
2018-12-31T06:02:31.023Z,5.88
2018-12-31T06:03:30.996Z,5.83
2018-12-31T06:04:30.967Z,5.86
2018-12-31T06:05:30.939Z,5.92
2018-12-31T06:06:30.913Z,5.88
2018-12-31T06:07:30.883Z,5.85
2018-12-31T06:08:30.854Z,5.92
2018-12-31T06:09:30.827Z,5.89
2018-12-31T06:10:30.799Z,5.83
2018-12-31T06:11:30.775Z,5.86
2018-12-31T06:12:30.743Z,5.83
2018-12-31T06:13:30.715Z,5.88
2018-12-31T06:14:30.687Z,5.83
2018-12-31T06:15:30.659Z,5.86
2018-12-31T06:16:30.631Z,5.82
2018-12-31T06:17:30.603Z,5.86
2018-12-31T06:18:30.575Z,5.83
2018-12-31T06:19:30.551Z,5.91
2018-12-31T06:20:30.519Z,5.92
2018-12-31T06:21:30.494Z,5.78
2018-12-31T06:22:30.463Z,5.86
2018-12-31T06:23:30.436Z,5.83
2018-12-31T06:24:30.409Z,5.81
2018-12-31T06:25:30.380Z,5.91
2018-12-31T06:26:30.352Z,5.91
2018-12-31T06:27:30.325Z,5.86
2018-12-31T06:28:30.296Z,5.82
2018-12-31T06:29:30.267Z,5.93
2018-12-31T06:30:30.240Z,5.95
2018-12-31T06:31:30.212Z,5.92
2018-12-31T06:32:30.183Z,5.93
2018-12-31T06:33:30.155Z,5.93
2018-12-31T06:34:30.131Z,5.96
2018-12-31T06:35:30.105Z,6.03
2018-12-31T06:36:30.072Z,6.00
2018-12-31T06:37:33.047Z,6.01
2018-12-31T06:38:30.016Z,6.03
2018-12-31T06:39:29.991Z,6.09
2018-12-31T06:40:29.976Z,5.98
2018-12-31T06:41:29.933Z,6.11
2018-12-31T06:42:29.906Z,6.11
2018-12-31T06:43:29.877Z,6.09
2018-12-31T06:44:29.848Z,6.13
2018-12-31T06:45:29.820Z,6.14
2018-12-31T06:46:29.792Z,6.07
2018-12-31T06:47:29.765Z,6.14
2018-12-31T06:48:29.734Z,6.11
2018-12-31T06:49:29.708Z,6.16
2018-12-31T06:50:29.681Z,6.19
2018-12-31T06:51:29.653Z,6.14
2018-12-31T06:52:29.625Z,6.10
2018-12-31T06:53:29.597Z,6.18
2018-12-31T06:54:29.570Z,6.13
2018-12-31T06:55:29.541Z,6.16
2018-12-31T06:56:29.513Z,6.11
2018-12-31T06:57:29.484Z,6.10
2018-12-31T06:58:29.458Z,6.18
2018-12-31T06:59:29.430Z,6.06
2018-12-31T07:00:29.402Z,6.11
2018-12-31T07:01:29.374Z,6.09
2018-12-31T07:02:29.347Z,6.10
2018-12-31T07:03:29.319Z,6.13
2018-12-31T07:04:29.291Z,6.09
2018-12-31T07:05:29.262Z,6.10
2018-12-31T07:06:29.237Z,6.11
2018-12-31T07:07:29.209Z,6.03
2018-12-31T07:08:29.181Z,6.00
2018-12-31T07:09:29.154Z,6.13
2018-12-31T07:10:29.125Z,6.13
2018-12-31T07:11:29.096Z,6.04
2018-12-31T07:12:29.068Z,6.09
2018-12-31T07:13:29.554Z,6.11
2018-12-31T07:14:29.013Z,6.06
2018-12-31T07:15:28.985Z,6.09
2018-12-31T07:16:28.958Z,6.07
2018-12-31T07:17:28.930Z,6.10
2018-12-31T07:18:28.902Z,6.14
2018-12-31T07:19:28.874Z,6.13
2018-12-31T07:20:28.849Z,6.09
2018-12-31T07:21:28.819Z,6.09
2018-12-31T07:22:28.791Z,6.14
2018-12-31T07:23:28.763Z,6.19
2018-12-31T07:24:28.735Z,6.16
2018-12-31T07:25:28.706Z,6.13
2018-12-31T07:26:28.679Z,6.10
2018-12-31T07:27:28.652Z,6.28
2018-12-31T07:28:28.624Z,6.25
2018-12-31T07:29:28.597Z,6.19
2018-12-31T07:30:28.568Z,6.10
2018-12-31T07:31:30.042Z,6.13
2018-12-31T07:32:28.512Z,6.18
2018-12-31T07:33:28.484Z,6.06
2018-12-31T07:34:28.456Z,6.07
2018-12-31T07:35:28.431Z,6.07
2018-12-31T07:36:28.402Z,6.04
2018-12-31T07:37:28.373Z,6.07
2018-12-31T07:38:28.346Z,6.09
2018-12-31T07:39:28.318Z,6.10
2018-12-31T07:40:28.289Z,6.13
2018-12-31T07:41:28.261Z,6.13
2018-12-31T07:42:28.234Z,6.09
2018-12-31T07:43:28.207Z,6.16
2018-12-31T07:44:28.178Z,6.14
2018-12-31T07:45:28.152Z,6.11
2018-12-31T07:46:28.123Z,6.11
2018-12-31T07:47:28.097Z,6.16
2018-12-31T07:48:28.070Z,6.11
2018-12-31T07:49:28.043Z,6.14
2018-12-31T07:50:28.215Z,6.16
2018-12-31T07:51:27.985Z,6.11
2018-12-31T07:52:27.958Z,6.25
2018-12-31T07:53:30.930Z,6.11
2018-12-31T07:54:27.905Z,6.13
2018-12-31T07:55:27.873Z,6.18
2018-12-31T07:56:27.846Z,6.26
2018-12-31T07:57:27.818Z,6.19
2018-12-31T07:58:27.793Z,6.25
2018-12-31T07:59:27.785Z,6.13
2018-12-31T08:00:27.734Z,6.18
2018-12-31T08:01:27.707Z,6.11
2018-12-31T08:02:27.682Z,6.19
2018-12-31T08:03:27.722Z,6.21
2018-12-31T08:04:27.623Z,6.28
2018-12-31T08:05:27.596Z,6.13
2018-12-31T08:06:27.568Z,6.21
2018-12-31T08:07:27.540Z,6.29
2018-12-31T08:08:27.512Z,6.30
2018-12-31T08:09:27.518Z,6.26
2018-12-31T08:10:28.207Z,6.30
2018-12-31T08:11:27.429Z,6.33
2018-12-31T08:12:27.401Z,6.38
2018-12-31T08:13:27.373Z,6.35
2018-12-31T08:14:27.346Z,6.30
2018-12-31T08:15:27.318Z,6.38
2018-12-31T08:16:27.289Z,6.33
2018-12-31T08:17:27.262Z,6.33
2018-12-31T08:18:27.234Z,6.33
2018-12-31T08:19:27.207Z,6.35
2018-12-31T08:20:27.181Z,6.33
2018-12-31T08:21:27.151Z,6.36
2018-12-31T08:22:27.124Z,6.35
2018-12-31T08:23:27.096Z,6.29
2018-12-31T08:24:27.067Z,6.38
2018-12-31T08:25:27.040Z,6.46
2018-12-31T08:26:27.013Z,6.38
2018-12-31T08:27:26.987Z,6.50
2018-12-31T08:28:26.957Z,6.40
2018-12-31T08:29:26.930Z,6.47
2018-12-31T08:30:26.902Z,6.48
2018-12-31T08:31:26.874Z,6.41
2018-12-31T08:32:26.846Z,6.47
2018-12-31T08:33:26.820Z,6.40
2018-12-31T08:34:26.792Z,6.47
2018-12-31T08:35:26.764Z,6.48
2018-12-31T08:36:26.736Z,6.41
2018-12-31T08:37:26.710Z,6.40
2018-12-31T08:38:26.680Z,6.47
2018-12-31T08:39:26.652Z,6.38
2018-12-31T08:40:26.624Z,6.41
2018-12-31T08:41:26.597Z,6.41
2018-12-31T08:42:30.322Z,6.43
2018-12-31T08:43:26.591Z,6.50
2018-12-31T08:44:26.515Z,6.43
2018-12-31T08:45:26.487Z,6.47
2018-12-31T08:46:26.460Z,6.46
2018-12-31T08:47:26.434Z,6.59
2018-12-31T08:48:26.404Z,6.63
2018-12-31T08:49:26.377Z,6.65
2018-12-31T08:50:26.352Z,6.65
2018-12-31T08:51:26.322Z,6.62
2018-12-31T08:52:26.292Z,6.58
2018-12-31T08:53:26.265Z,6.61
2018-12-31T08:54:26.238Z,6.63
2018-12-31T08:55:26.211Z,6.69
2018-12-31T08:56:26.183Z,6.66
2018-12-31T08:57:26.155Z,6.66
2018-12-31T08:58:26.130Z,6.69
2018-12-31T08:59:26.100Z,6.81
2018-12-31T09:00:26.073Z,6.77
2018-12-31T09:01:26.045Z,6.72
2018-12-31T09:02:26.035Z,6.80
2018-12-31T09:03:25.991Z,6.73
2018-12-31T09:04:26.714Z,6.77
2018-12-31T09:05:25.936Z,6.81
2018-12-31T09:06:25.910Z,6.73
2018-12-31T09:07:25.883Z,6.68
2018-12-31T09:08:25.853Z,6.77
2018-12-31T09:09:25.827Z,6.83
2018-12-31T09:10:25.801Z,6.81
2018-12-31T09:11:25.772Z,6.90
2018-12-31T09:12:25.745Z,6.99
2018-12-31T09:13:25.717Z,6.99
2018-12-31T09:14:25.691Z,6.99
2018-12-31T09:15:25.663Z,6.94
2018-12-31T09:16:25.636Z,6.86
2018-12-31T09:17:25.609Z,6.89
2018-12-31T09:18:25.582Z,6.98
2018-12-31T09:19:25.558Z,7.04
2018-12-31T09:20:25.527Z,7.04
2018-12-31T09:21:25.505Z,7.02
2018-12-31T09:22:25.474Z,7.05
2018-12-31T09:23:25.447Z,6.99
2018-12-31T09:24:25.443Z,7.02
2018-12-31T09:25:26.143Z,6.99
2018-12-31T09:26:25.366Z,6.98
2018-12-31T09:27:25.339Z,7.19
2018-12-31T09:28:25.311Z,7.13
2018-12-31T09:29:25.301Z,7.20
2018-12-31T09:30:25.258Z,7.19
2018-12-31T09:31:25.232Z,7.27
2018-12-31T09:32:25.203Z,7.26
2018-12-31T09:33:25.177Z,7.24
2018-12-31T09:34:25.156Z,7.32
2018-12-31T09:35:25.124Z,7.29
2018-12-31T09:36:25.097Z,7.26
2018-12-31T09:37:25.072Z,7.26
2018-12-31T09:38:25.043Z,7.29
2018-12-31T09:39:25.020Z,7.34
2018-12-31T09:40:25.036Z,7.31
2018-12-31T09:41:24.968Z,7.32
2018-12-31T09:42:24.937Z,7.32
2018-12-31T09:43:24.912Z,7.42
2018-12-31T09:44:24.884Z,7.45
2018-12-31T09:45:24.857Z,7.60
2018-12-31T09:46:24.831Z,7.72
2018-12-31T09:47:24.805Z,7.75
2018-12-31T09:48:24.777Z,7.78
2018-12-31T09:49:24.752Z,7.79
2018-12-31T09:50:24.732Z,7.78
2018-12-31T09:51:24.699Z,7.87
2018-12-31T09:52:25.422Z,7.85
2018-12-31T09:53:24.646Z,7.87
2018-12-31T09:54:24.620Z,7.85
2018-12-31T09:55:24.594Z,7.84
2018-12-31T09:56:24.568Z,7.81
2018-12-31T09:57:24.541Z,7.79
2018-12-31T09:58:24.515Z,7.77
2018-12-31T09:59:24.489Z,7.72
2018-12-31T10:00:24.464Z,7.74
2018-12-31T10:01:24.437Z,7.71
2018-12-31T10:02:24.412Z,7.75
2018-12-31T10:03:24.384Z,7.74
2018-12-31T10:04:24.357Z,7.82
2018-12-31T10:05:24.332Z,7.75
2018-12-31T10:06:24.305Z,7.84
2018-12-31T10:07:24.279Z,7.77
2018-12-31T10:08:24.252Z,7.81
2018-12-31T10:09:24.227Z,7.79
2018-12-31T10:10:24.205Z,7.87
2018-12-31T10:11:24.175Z,7.92
2018-12-31T10:12:24.148Z,8.07
2018-12-31T10:13:24.121Z,7.94
2018-12-31T10:14:24.096Z,7.92
2018-12-31T10:15:24.071Z,7.81
2018-12-31T10:16:24.044Z,7.85
2018-12-31T10:17:24.018Z,7.92
2018-12-31T10:18:23.992Z,7.96
2018-12-31T10:19:23.968Z,7.89
2018-12-31T10:20:23.940Z,7.94
2018-12-31T10:21:23.916Z,7.82
2018-12-31T10:22:23.888Z,7.82
2018-12-31T10:23:23.863Z,7.89
2018-12-31T10:24:23.836Z,7.97
2018-12-31T10:25:23.810Z,7.92
2018-12-31T10:26:23.784Z,8.07
2018-12-31T10:27:23.759Z,7.99
2018-12-31T10:28:23.732Z,7.96
2018-12-31T10:29:23.709Z,7.94
2018-12-31T10:30:23.681Z,8.10
2018-12-31T10:31:23.656Z,8.03
2018-12-31T10:32:23.628Z,8.07
2018-12-31T10:33:23.604Z,8.08
2018-12-31T10:34:23.577Z,8.20
2018-12-31T10:35:23.551Z,8.25
2018-12-31T10:36:23.524Z,8.17
2018-12-31T10:37:23.508Z,8.21
2018-12-31T10:38:23.474Z,8.22
2018-12-31T10:39:23.450Z,8.22
2018-12-31T10:40:27.981Z,8.21
2018-12-31T10:41:23.396Z,8.17
2018-12-31T10:42:23.376Z,8.20
2018-12-31T10:43:23.345Z,8.29
2018-12-31T10:44:23.319Z,8.33
2018-12-31T10:45:23.293Z,8.44
2018-12-31T10:46:23.269Z,8.47
2018-12-31T10:47:23.243Z,8.55
2018-12-31T10:48:23.216Z,8.53
2018-12-31T10:49:23.189Z,8.48
2018-12-31T10:50:23.169Z,8.48
2018-12-31T10:51:23.140Z,8.32
2018-12-31T10:52:23.114Z,8.32
2018-12-31T10:53:23.089Z,8.14
2018-12-31T10:54:23.064Z,8.17
2018-12-31T10:55:23.039Z,8.22
2018-12-31T10:56:23.011Z,8.14
2018-12-31T10:57:22.987Z,8.15
2018-12-31T10:58:22.962Z,8.15
2018-12-31T10:59:22.936Z,8.10
2018-12-31T11:00:22.911Z,8.15
2018-12-31T11:01:22.885Z,8.18
2018-12-31T11:02:23.343Z,8.07
2018-12-31T11:03:22.837Z,8.08
2018-12-31T11:04:22.808Z,8.10
2018-12-31T11:05:22.783Z,8.11
2018-12-31T11:06:22.758Z,8.11
2018-12-31T11:07:22.732Z,7.94
2018-12-31T11:08:22.707Z,8.07
2018-12-31T11:09:22.681Z,8.08
2018-12-31T11:10:22.657Z,8.07
2018-12-31T11:11:22.632Z,8.07
2018-12-31T11:12:22.605Z,7.92
2018-12-31T11:13:24.080Z,7.78
2018-12-31T11:14:22.555Z,7.94
2018-12-31T11:15:22.529Z,7.92
2018-12-31T11:16:22.502Z,8.03
2018-12-31T11:17:22.476Z,8.14
2018-12-31T11:18:22.451Z,8.25
2018-12-31T11:19:22.425Z,8.14
2018-12-31T11:20:22.400Z,8.07
2018-12-31T11:21:22.374Z,7.96
2018-12-31T11:22:22.349Z,8.08
2018-12-31T11:23:22.324Z,8.26
2018-12-31T11:24:22.296Z,8.20
2018-12-31T11:25:22.271Z,8.30
2018-12-31T11:26:22.247Z,8.37
2018-12-31T11:27:22.221Z,8.26
2018-12-31T11:28:22.194Z,8.25
2018-12-31T11:29:22.169Z,8.26
2018-12-31T11:30:22.144Z,8.12
2018-12-31T11:31:22.118Z,8.04
2018-12-31T11:32:22.092Z,8.11
2018-12-31T11:33:22.067Z,7.99
2018-12-31T11:34:22.041Z,8.00
2018-12-31T11:35:22.016Z,7.94
2018-12-31T11:36:21.989Z,7.92
2018-12-31T11:37:21.964Z,7.87
2018-12-31T11:38:21.939Z,7.81
2018-12-31T11:39:21.913Z,7.87
2018-12-31T11:40:21.887Z,7.85
2018-12-31T11:41:21.861Z,7.82
2018-12-31T11:42:21.836Z,7.74
2018-12-31T11:43:21.810Z,7.85
2018-12-31T11:44:21.784Z,7.94
2018-12-31T11:45:22.508Z,7.96
2018-12-31T11:46:21.732Z,7.96
2018-12-31T11:47:21.707Z,8.00
2018-12-31T11:48:21.681Z,7.87
2018-12-31T11:49:21.656Z,7.77
2018-12-31T11:50:21.629Z,7.82
2018-12-31T11:51:21.603Z,7.96
2018-12-31T11:52:21.576Z,7.97
2018-12-31T11:53:21.553Z,8.04
2018-12-31T11:54:21.527Z,8.11
2018-12-31T11:55:21.501Z,8.15
2018-12-31T11:56:21.475Z,8.10
2018-12-31T11:57:21.447Z,8.18
2018-12-31T11:58:21.422Z,8.25
2018-12-31T11:59:21.396Z,8.29
2018-12-31T12:00:21.370Z,8.29
2018-12-31T12:01:22.845Z,8.21
2018-12-31T12:02:23.692Z,8.15
2018-12-31T12:03:21.294Z,8.26
2018-12-31T12:04:21.267Z,8.14
2018-12-31T12:05:21.243Z,8.18
2018-12-31T12:06:21.215Z,8.28
2018-12-31T12:07:23.442Z,8.30
2018-12-31T12:08:21.166Z,8.32
2018-12-31T12:09:21.138Z,8.35
2018-12-31T12:10:21.113Z,8.42
2018-12-31T12:11:21.087Z,8.51
2018-12-31T12:12:21.063Z,8.33
2018-12-31T12:13:21.038Z,8.18
2018-12-31T12:14:21.010Z,8.21
2018-12-31T12:15:20.984Z,8.17
2018-12-31T12:16:20.960Z,8.18
2018-12-31T12:17:20.934Z,8.10
2018-12-31T12:18:20.908Z,8.22
2018-12-31T12:19:20.882Z,8.10
2018-12-31T12:20:20.856Z,8.02
2018-12-31T12:21:20.830Z,7.90
2018-12-31T12:22:20.803Z,7.97
2018-12-31T12:23:20.783Z,7.87
2018-12-31T12:24:20.757Z,7.87
2018-12-31T12:25:20.728Z,7.84
2018-12-31T12:26:20.702Z,7.87
2018-12-31T12:27:20.676Z,7.92
2018-12-31T12:28:20.650Z,7.87
2018-12-31T12:29:20.625Z,7.84
2018-12-31T12:30:20.600Z,7.87
2018-12-31T12:31:20.575Z,7.93
2018-12-31T12:32:20.547Z,8.00
2018-12-31T12:33:20.522Z,8.12
2018-12-31T12:34:20.496Z,8.11
2018-12-31T12:35:20.472Z,8.07
2018-12-31T12:36:20.443Z,8.03
2018-12-31T12:37:20.421Z,8.10
2018-12-31T12:38:20.395Z,8.11
2018-12-31T12:39:20.368Z,8.11
2018-12-31T12:40:20.351Z,8.11
2018-12-31T12:41:20.315Z,8.10
2018-12-31T12:42:20.289Z,8.14
2018-12-31T12:43:20.264Z,7.97
2018-12-31T12:44:20.237Z,7.94
2018-12-31T12:45:21.713Z,7.93
2018-12-31T12:46:20.188Z,7.92
2018-12-31T12:47:20.162Z,7.79
2018-12-31T12:48:20.134Z,7.84
2018-12-31T12:49:20.108Z,7.90
2018-12-31T12:50:20.083Z,7.96
2018-12-31T12:51:20.058Z,8.08
2018-12-31T12:52:20.032Z,8.15
2018-12-31T12:53:20.007Z,8.12
2018-12-31T12:54:19.981Z,8.12
2018-12-31T12:55:19.955Z,8.12
2018-12-31T12:56:19.928Z,8.15
2018-12-31T12:57:19.902Z,8.15
2018-12-31T12:58:19.880Z,8.22
2018-12-31T12:59:19.855Z,8.32
2018-12-31T13:00:19.825Z,8.30
2018-12-31T13:01:19.800Z,8.28
2018-12-31T13:02:19.774Z,8.29
2018-12-31T13:03:19.749Z,8.26
2018-12-31T13:04:19.722Z,8.25
2018-12-31T13:05:19.697Z,8.20
2018-12-31T13:06:19.672Z,8.17
2018-12-31T13:07:19.646Z,8.18
2018-12-31T13:08:19.620Z,8.30
2018-12-31T13:09:19.595Z,8.29
2018-12-31T13:10:19.569Z,8.29
2018-12-31T13:11:19.544Z,8.29
2018-12-31T13:12:19.521Z,8.18
2018-12-31T13:13:19.493Z,8.11
2018-12-31T13:14:19.468Z,8.20
2018-12-31T13:15:19.443Z,8.11
2018-12-31T13:16:19.416Z,8.11
2018-12-31T13:17:19.391Z,8.18
2018-12-31T13:18:20.116Z,8.10